Time;durP1;ratioP1;P1;durP2;ratioP2;P2;SDS_P1;SDS_P2;PMS_P1;PMS_P2;Temp;Humidity;BMP_temperature;BMP_pressure;BME280_temperature;BME280_humidity;BME280_pressure;Samples;Min_cycle;Max_cycle;Signal;HPM_P1;HPM_P2
2023/05/25 00:01:42;;;;;;;;;;;7.20;99.90;;;;;;5028262;28;19925;-95
2023/05/25 00:04:09;;;;;;;;;;;7.20;99.90;;;;;;5016315;28;20032;-93
2023/05/25 00:06:36;;;;;;;;;;;7.20;99.90;;;;;;5021091;28;19925;-95
2023/05/25 00:09:02;;;;;;;;;;;7.10;99.90;;;;;;5010367;28;19963;-94
2023/05/25 00:11:28;;;;;;;;;;;7.10;99.90;;;;;;5012384;28;20018;-94
2023/05/25 00:13:53;;;;;;;;;;;7.20;99.90;;;;;;5003316;28;19925;-93
2023/05/25 00:16:19;;;;;;;;;;;7.10;99.90;;;;;;5016504;28;19921;-92
2023/05/25 00:18:47;;;;;;;;;;;7.10;99.90;;;;;;5029260;28;19921;-94
2023/05/25 00:21:14;;;;;;;;;;;7.10;99.90;;;;;;5049751;28;19925;-93
2023/05/25 00:23:40;;;;;;;;;;;8.20;99.90;;;;;;5018607;28;20005;-92
2023/05/25 00:26:05;;;;;;;;;;;7.00;99.90;;;;;;5023782;28;19948;-94
2023/05/25 00:28:34;;;;;;;;;;;7.00;99.90;;;;;;5035047;28;19936;-93
2023/05/25 00:31:00;;;;;;;;;;;7.00;99.90;;;;;;5017096;28;19925;-94
2023/05/25 00:33:25;;;;;;;;;;;9.90;99.90;;;;;;5024729;28;19925;-94
2023/05/25 00:35:52;;;;;;;;;;;7.10;99.90;;;;;;5016099;28;19972;-92
2023/05/25 00:38:18;;;;;;;;;;;7.00;99.90;;;;;;5036944;28;19958;-94
2023/05/25 00:40:44;;;;;;;;;;;7.00;99.90;;;;;;5025618;28;19931;-92
2023/05/25 00:43:16;;;;;;;;;;;7.10;99.90;;;;;;5005895;28;19992;-94
2023/05/25 00:45:42;;;;;;;;;;;7.10;99.90;;;;;;5027267;28;19989;-94
2023/05/25 00:48:08;;;;;;;;;;;7.10;99.90;;;;;;5006831;28;20024;-93
2023/05/25 00:50:39;;;;;;;;;;;7.10;99.90;;;;;;5019678;28;19925;-93
2023/05/25 00:53:05;;;;;;;;;;;7.10;99.90;;;;;;5022332;28;19962;-94
2023/05/25 00:55:53;;;;;;;;;;;7.10;99.90;;;;;;5030083;28;19980;-93
2023/05/25 00:58:23;;;;;;;;;;;7.10;99.90;;;;;;5017375;28;19929;-92
2023/05/25 01:00:49;;;;;;;;;;;7.10;99.90;;;;;;5030532;28;19936;-92
2023/05/25 01:03:20;;;;;;;;;;;7.00;99.90;;;;;;5030491;28;19932;-92
2023/05/25 01:05:50;;;;;;;;;;;7.00;99.90;;;;;;5012966;28;20323;-92
2023/05/25 01:08:16;;;;;;;;;;;7.00;99.90;;;;;;5030120;28;19925;-93
2023/05/25 01:10:43;;;;;;;;;;;7.00;99.90;;;;;;5002449;28;19933;-94
2023/05/25 01:13:09;;;;;;;;;;;6.90;99.90;;;;;;5029329;28;19930;-94
2023/05/25 01:15:36;;;;;;;;;;;6.90;99.90;;;;;;5031821;28;19971;-94
2023/05/25 01:18:02;;;;;;;;;;;6.90;99.90;;;;;;5015932;28;19944;-93
2023/05/25 01:20:29;;;;;;;;;;;6.90;99.90;;;;;;5006414;28;19925;-93
2023/05/25 01:23:00;;;;;;;;;;;7.10;99.90;;;;;;5009294;28;19975;-94
2023/05/25 01:25:38;;;;;;;;;;;6.90;99.90;;;;;;5039961;28;19925;-93
2023/05/25 01:28:19;;;;;;;;;;;6.90;99.90;;;;;;5015232;28;19925;-93
2023/05/25 01:30:45;;;;;;;;;;;6.80;99.90;;;;;;5017350;28;19988;-92
2023/05/25 01:33:11;;;;;;;;;;;6.80;99.90;;;;;;5022664;28;19944;-94
2023/05/25 01:35:40;;;;;;;;;;;6.90;99.90;;;;;;5018317;28;19925;-93
2023/05/25 01:38:07;;;;;;;;;;;8.40;99.90;;;;;;5032006;28;19929;-93
2023/05/25 01:40:32;;;;;;;;;;;6.90;99.90;;;;;;5029383;28;19933;-93
2023/05/25 01:42:58;;;;;;;;;;;6.90;99.90;;;;;;5026610;28;19928;-92
2023/05/25 01:45:24;;;;;;;;;;;6.90;99.90;;;;;;5010257;28;19925;-93
2023/05/25 01:48:28;;;;;;;;;;;6.80;99.90;;;;;;5009702;28;20437;-93
2023/05/25 01:51:03;;;;;;;;;;;8.30;99.90;;;;;;4947567;28;19926;-92
2023/05/25 01:53:31;;;;;;;;;;;6.80;99.90;;;;;;4949699;28;19926;-93
2023/05/25 01:55:58;;;;;;;;;;;6.70;99.90;;;;;;4999519;28;19993;-93
2023/05/25 01:58:25;;;;;;;;;;;6.60;99.90;;;;;;5019059;28;19924;-93
2023/05/25 02:00:51;;;;;;;;;;;6.60;99.90;;;;;;5028411;28;19937;-94
2023/05/25 02:03:17;;;;;;;;;;;6.60;99.90;;;;;;5029997;28;19932;-92
2023/05/25 02:05:43;;;;;;;;;;;6.60;99.90;;;;;;4997862;28;20011;-93
2023/05/25 02:08:08;;;;;;;;;;;6.60;99.90;;;;;;5033481;28;19925;-93
2023/05/25 02:10:34;;;;;;;;;;;7.60;99.90;;;;;;5002600;28;20399;-93
2023/05/25 02:12:59;;;;;;;;;;;6.60;99.90;;;;;;5001324;28;19926;-93
2023/05/25 02:15:29;;;;;;;;;;;6.70;99.90;;;;;;5022093;28;19925;-94
2023/05/25 02:17:59;;;;;;;;;;;6.70;99.90;;;;;;5016482;28;19979;-92
2023/05/25 02:20:25;;;;;;;;;;;6.70;99.90;;;;;;5008056;28;19972;-93
2023/05/25 02:22:51;;;;;;;;;;;6.70;99.90;;;;;;5005778;28;19929;-94
2023/05/25 02:25:16;;;;;;;;;;;6.60;99.90;;;;;;5013752;28;19932;-94
2023/05/25 02:27:42;;;;;;;;;;;6.60;99.90;;;;;;5038396;28;19925;-92
2023/05/25 02:30:08;;;;;;;;;;;6.50;99.90;;;;;;5027237;28;19951;-94
2023/05/25 02:32:34;;;;;;;;;;;6.40;99.90;;;;;;4999375;28;19933;-94
2023/05/25 02:35:00;;;;;;;;;;;6.40;99.90;;;;;;4999536;28;19932;-92
2023/05/25 02:37:25;;;;;;;;;;;6.40;99.90;;;;;;5003422;28;19956;-93
2023/05/25 02:39:51;;;;;;;;;;;6.40;99.90;;;;;;5021576;28;19932;-94
2023/05/25 02:42:18;;;;;;;;;;;6.50;99.90;;;;;;5009201;28;19929;-93
2023/05/25 02:44:47;;;;;;;;;;;6.30;99.90;;;;;;5015829;28;19925;-94
2023/05/25 02:47:16;;;;;;;;;;;6.20;99.90;;;;;;5005909;28;19975;-92
2023/05/25 02:49:45;;;;;;;;;;;6.10;99.90;;;;;;5015379;28;20459;-93
2023/05/25 02:52:10;;;;;;;;;;;6.10;99.90;;;;;;4998361;28;19925;-93
2023/05/25 02:54:37;;;;;;;;;;;6.20;99.90;;;;;;5006994;28;19926;-93
2023/05/25 02:57:03;;;;;;;;;;;6.20;99.90;;;;;;5015102;28;19932;-93
2023/05/25 02:59:29;;;;;;;;;;;6.20;99.90;;;;;;5028335;28;19964;-91
2023/05/25 03:01:55;;;;;;;;;;;6.30;99.90;;;;;;5035476;28;20760;-94
2023/05/25 03:04:20;;;;;;;;;;;6.30;99.90;;;;;;5021278;28;19929;-93
2023/05/25 03:06:46;;;;;;;;;;;6.40;99.90;;;;;;5009686;28;19948;-93
2023/05/25 03:09:12;;;;;;;;;;;6.40;99.90;;;;;;5020091;28;19933;-94
2023/05/25 03:11:38;;;;;;;;;;;6.50;99.90;;;;;;5009203;28;19936;-93
2023/05/25 03:14:04;;;;;;;;;;;6.50;99.90;;;;;;5019141;28;19932;-94
2023/05/25 03:16:30;;;;;;;;;;;6.40;99.90;;;;;;5025872;28;19925;-93
2023/05/25 03:18:56;;;;;;;;;;;6.40;99.90;;;;;;5004499;28;19932;-93
2023/05/25 03:21:22;;;;;;;;;;;6.30;99.90;;;;;;5034479;28;20015;-94
2023/05/25 03:23:48;;;;;;;;;;;6.30;99.90;;;;;;5021829;28;19933;-93
2023/05/25 03:26:14;;;;;;;;;;;6.20;99.90;;;;;;5017104;28;19956;-93
2023/05/25 03:28:40;;;;;;;;;;;6.20;99.90;;;;;;5027433;28;19925;-94
2023/05/25 03:31:06;;;;;;;;;;;6.10;99.90;;;;;;5030626;28;19932;-94
2023/05/25 03:33:32;;;;;;;;;;;6.10;99.90;;;;;;5003840;28;19925;-94
2023/05/25 03:36:06;;;;;;;;;;;6.10;99.90;;;;;;5011887;28;19971;-94
2023/05/25 03:38:31;;;;;;;;;;;6.00;99.90;;;;;;5022296;28;19925;-94
2023/05/25 03:40:57;;;;;;;;;;;6.00;99.90;;;;;;5018172;28;19937;-93
2023/05/25 03:43:23;;;;;;;;;;;6.10;99.90;;;;;;5002366;28;19925;-95
2023/05/25 03:45:48;;;;;;;;;;;6.10;99.90;;;;;;5020282;28;19936;-93
2023/05/25 03:48:20;;;;;;;;;;;6.10;99.90;;;;;;5007237;28;19932;-93
2023/05/25 03:50:46;;;;;;;;;;;6.10;99.90;;;;;;5016310;28;19945;-92
2023/05/25 03:53:11;;;;;;;;;;;6.30;99.90;;;;;;4995508;28;19933;-92
2023/05/25 03:55:37;;;;;;;;;;;6.20;99.90;;;;;;5019117;28;19957;-93
2023/05/25 03:58:03;;;;;;;;;;;6.20;99.90;;;;;;5022664;28;19951;-92
2023/05/25 04:00:28;;;;;;;;;;;6.40;99.90;;;;;;4997604;28;19930;-93
2023/05/25 04:02:55;;;;;;;;;;;6.40;99.90;;;;;;4998713;28;19925;-93
2023/05/25 04:05:21;;;;;;;;;;;6.20;99.90;;;;;;5015803;28;20311;-92
2023/05/25 04:07:47;;;;;;;;;;;6.20;99.90;;;;;;5021298;28;19925;-95
2023/05/25 04:10:13;;;;;;;;;;;6.60;99.90;;;;;;5021994;28;19925;-94
2023/05/25 04:12:38;;;;;;;;;;;6.10;99.90;;;;;;5004544;28;19991;-94
2023/05/25 04:15:08;;;;;;;;;;;6.20;99.90;;;;;;5007918;28;19929;-92
2023/05/25 04:17:40;;;;;;;;;;;7.30;99.90;;;;;;5020787;28;19939;-94
2023/05/25 04:20:07;;;;;;;;;;;5.90;99.90;;;;;;5013703;28;19925;-95
2023/05/25 04:22:40;;;;;;;;;;;6.40;99.90;;;;;;5063275;22;19929;-85
2023/05/25 04:25:06;;;;;;;;;;;3.90;99.90;;;;;;5039772;28;19925;-85
2023/05/25 04:27:32;;;;;;;;;;;9.20;99.90;;;;;;5051470;28;20386;-85
2023/05/25 04:29:58;;;;;;;;;;;6.50;99.90;;;;;;5018427;28;19925;-85
2023/05/25 04:32:23;;;;;;;;;;;7.10;99.90;;;;;;5046358;28;19925;-85
2023/05/25 04:34:49;;;;;;;;;;;6.80;99.90;;;;;;5045414;28;19936;-85
2023/05/25 04:37:16;;;;;;;;;;;6.60;99.90;;;;;;5046624;28;19987;-85
2023/05/25 04:39:44;;;;;;;;;;;6.40;99.90;;;;;;5063164;28;20340;-85
2023/05/25 04:42:12;;;;;;;;;;;7.10;99.90;;;;;;5047416;28;19929;-85
2023/05/25 04:44:39;;;;;;;;;;;6.60;99.90;;;;;;5029873;28;19925;-85
2023/05/25 04:47:06;;;;;;;;;;;6.80;99.90;;;;;;5026738;28;19925;-89
2023/05/25 04:49:31;;;;;;;;;;;6.90;99.90;;;;;;5026780;28;19929;-89
2023/05/25 04:51:59;;;;;;;;;;;7.00;99.90;;;;;;5033684;28;19970;-87
2023/05/25 04:54:25;;;;;;;;;;;7.10;99.90;;;;;;5034264;28;20031;-87
2023/05/25 04:56:52;;;;;;;;;;;7.10;99.90;;;;;;5034986;28;19932;-87
2023/05/25 04:59:20;;;;;;;;;;;7.60;99.90;;;;;;5044498;28;20378;-87
2023/05/25 05:01:45;;;;;;;;;;;7.90;99.90;;;;;;5052641;28;20394;-87
2023/05/25 05:04:16;;;;;;;;;;;7.50;99.90;;;;;;5052888;28;19925;-88
2023/05/25 05:06:42;;;;;;;;;;;7.80;99.90;;;;;;5060878;28;19928;-87
2023/05/25 05:09:08;;;;;;;;;;;8.00;99.90;;;;;;5053926;28;19925;-88
2023/05/25 05:11:36;;;;;;;;;;;7.70;99.90;;;;;;5054336;28;19924;-87
2023/05/25 05:14:01;;;;;;;;;;;8.20;99.90;;;;;;5031584;28;19925;-87
2023/05/25 05:16:32;;;;;;;;;;;8.00;99.90;;;;;;5044626;28;20082;-87
2023/05/25 05:18:58;;;;;;;;;;;8.60;99.90;;;;;;5021981;28;19925;-88
2023/05/25 05:21:23;;;;;;;;;;;8.00;99.90;;;;;;5033189;28;20007;-88
2023/05/25 05:23:49;;;;;;;;;;;8.00;99.90;;;;;;5044925;28;19929;-88
2023/05/25 05:26:15;;;;;;;;;;;8.20;99.90;;;;;;5049426;28;19925;-86
2023/05/25 05:28:40;;;;;;;;;;;8.40;99.90;;;;;;5035285;28;20387;-86
2023/05/25 05:31:07;;;;;;;;;;;8.60;99.90;;;;;;5047204;28;20023;-87
2023/05/25 05:33:43;;;;;;;;;;;8.90;99.90;;;;;;5036523;28;19933;-86
2023/05/25 05:36:09;;;;;;;;;;;8.90;99.90;;;;;;5035052;28;19933;-86
2023/05/25 05:38:35;;;;;;;;;;;9.60;99.90;;;;;;5041267;28;20023;-86
2023/05/25 05:41:01;;;;;;;;;;;9.20;99.90;;;;;;5050254;28;20410;-87
2023/05/25 05:43:27;;;;;;;;;;;9.30;99.90;;;;;;5037331;28;19978;-87
2023/05/25 05:45:53;;;;;;;;;;;10.10;99.90;;;;;;5037443;28;20402;-86
2023/05/25 05:48:21;;;;;;;;;;;9.90;99.90;;;;;;5034618;28;20074;-89
2023/05/25 05:50:47;;;;;;;;;;;9.90;99.90;;;;;;5025068;28;20007;-86
2023/05/25 05:53:13;;;;;;;;;;;10.10;99.90;;;;;;5037795;28;20398;-87
2023/05/25 05:55:38;;;;;;;;;;;10.30;99.90;;;;;;5054073;28;20295;-87
2023/05/25 05:58:04;;;;;;;;;;;11.50;99.90;;;;;;5050255;28;19925;-86
2023/05/25 06:00:37;;;;;;;;;;;10.50;99.90;;;;;;5046905;28;19933;-87
2023/05/25 06:03:05;;;;;;;;;;;11.20;99.90;;;;;;5049667;28;20386;-90
2023/05/25 06:05:34;;;;;;;;;;;11.10;99.90;;;;;;5032248;28;19929;-89
2023/05/25 06:08:00;;;;;;;;;;;11.20;99.90;;;;;;5034671;28;19925;-87
2023/05/25 06:10:25;;;;;;;;;;;12.00;99.90;;;;;;5037328;28;19925;-86
2023/05/25 06:12:56;;;;;;;;;;;11.40;99.90;;;;;;5052280;28;19929;-88
2023/05/25 06:15:24;;;;;;;;;;;12.40;99.90;;;;;;5034746;28;19925;-86
2023/05/25 06:17:52;;;;;;;;;;;11.50;99.90;;;;;;5038687;28;19929;-87
2023/05/25 06:20:18;;;;;;;;;;;11.70;99.90;;;;;;5049199;28;19925;-85
2023/05/25 06:22:44;;;;;;;;;;;12.10;99.90;;;;;;5033561;28;19931;-86
2023/05/25 06:25:10;;;;;;;;;;;11.90;99.90;;;;;;5037903;28;19948;-86
2023/05/25 06:27:36;;;;;;;;;;;12.60;99.90;;;;;;5025834;28;20339;-87
2023/05/25 06:30:05;;;;;;;;;;;13.10;99.90;;;;;;5034644;28;20019;-86
2023/05/25 06:32:42;;;;;;;;;;;12.30;99.90;;;;;;5048208;28;20362;-90
2023/05/25 06:35:08;;;;;;;;;;;12.70;99.90;;;;;;5030604;28;19948;-87
2023/05/25 06:37:36;;;;;;;;;;;12.40;99.90;;;;;;5041706;28;19925;-88
2023/05/25 06:40:09;;;;;;;;;;;12.50;99.90;;;;;;5027746;28;19996;-87
2023/05/25 06:42:35;;;;;;;;;;;12.90;99.90;;;;;;5059264;28;19974;-88
2023/05/25 06:45:00;;;;;;;;;;;13.00;99.90;;;;;;5037367;28;19925;-88
2023/05/25 06:47:26;;;;;;;;;;;13.00;99.90;;;;;;5028816;28;19929;-86
2023/05/25 06:49:51;;;;;;;;;;;12.70;99.90;;;;;;5040316;28;20420;-87
2023/05/25 06:52:19;;;;;;;;;;;12.80;99.90;;;;;;5051861;28;20454;-87
2023/05/25 06:54:45;;;;;;;;;;;13.50;99.90;;;;;;5051084;28;19929;-87
2023/05/25 06:57:13;;;;;;;;;;;13.30;99.90;;;;;;5047511;28;20268;-85
2023/05/25 06:59:41;;;;;;;;;;;12.70;99.90;;;;;;5040083;28;20286;-91
2023/05/25 07:02:10;;;;;;;;;;;12.70;99.90;;;;;;5042685;28;19924;-87
2023/05/25 07:04:36;;;;;;;;;;;13.10;99.90;;;;;;5025323;28;19964;-87
2023/05/25 07:07:05;;;;;;;;;;;12.90;99.90;;;;;;5028083;28;19979;-88
2023/05/25 07:09:30;;;;;;;;;;;13.20;99.90;;;;;;5007653;28;20521;-88
2023/05/25 07:12:06;;;;;;;;;;;10.50;99.90;;;;;;5023288;28;20012;-88
2023/05/25 07:14:35;;;;;;;;;;;11.40;99.90;;;;;;5035136;28;19932;-88
2023/05/25 07:17:01;;;;;;;;;;;13.50;99.90;;;;;;5049626;28;19928;-87
2023/05/25 07:19:26;;;;;;;;;;;13.40;99.90;;;;;;5041454;28;19975;-87
2023/05/25 07:21:52;;;;;;;;;;;14.60;99.90;;;;;;5027368;28;19925;-89
2023/05/25 07:24:23;;;;;;;;;;;13.80;99.90;;;;;;5016645;28;20003;-89
2023/05/25 07:26:49;;;;;;;;;;;14.00;99.90;;;;;;5032377;28;19947;-89
2023/05/25 07:29:14;;;;;;;;;;;11.00;99.90;;;;;;5022744;28;19940;-90
2023/05/25 07:31:45;;;;;;;;;;;13.50;99.90;;;;;;5046931;28;19925;-90
2023/05/25 07:34:10;;;;;;;;;;;13.80;99.90;;;;;;5016524;28;19925;-89
2023/05/25 07:36:39;;;;;;;;;;;13.60;99.90;;;;;;5034739;28;20389;-90
2023/05/25 07:39:05;;;;;;;;;;;13.20;99.90;;;;;;5034100;28;20382;-90
2023/05/25 07:41:33;;;;;;;;;;;13.50;99.90;;;;;;5028210;28;19925;-89
2023/05/25 07:43:59;;;;;;;;;;;13.70;99.90;;;;;;5042168;28;19928;-90
2023/05/25 07:46:24;;;;;;;;;;;13.50;99.90;;;;;;5034485;28;19932;-88
2023/05/25 07:48:53;;;;;;;;;;;13.50;99.90;;;;;;5049832;28;19929;-89
2023/05/25 07:51:21;;;;;;;;;;;10.90;99.90;;;;;;5039371;28;19991;-90
2023/05/25 07:53:48;;;;;;;;;;;13.80;99.90;;;;;;5016807;28;19929;-89
2023/05/25 07:56:14;;;;;;;;;;;13.10;99.90;;;;;;5049600;28;20239;-91
2023/05/25 07:58:40;;;;;;;;;;;12.40;99.90;;;;;;5027775;28;20324;-84
2023/05/25 08:01:08;;;;;;;;;;;13.30;99.90;;;;;;5019261;28;19925;-87
2023/05/25 08:03:33;;;;;;;;;;;13.70;99.90;;;;;;5048026;28;19925;-86
2023/05/25 08:06:01;;;;;;;;;;;13.50;99.90;;;;;;5036842;28;19933;-91
2023/05/25 08:08:27;;;;;;;;;;;13.90;99.90;;;;;;5048842;28;20439;-86
2023/05/25 08:11:00;;;;;;;;;;;14.00;99.90;;;;;;5049769;28;19968;-88
2023/05/25 08:13:34;;;;;;;;;;;13.60;99.90;;;;;;5025464;28;19929;-87
2023/05/25 08:16:20;;;;;;;;;;;13.70;99.90;;;;;;5044090;28;19939;-87
2023/05/25 08:18:48;;;;;;;;;;;14.20;99.90;;;;;;5034410;28;19991;-86
2023/05/25 08:21:14;;;;;;;;;;;13.80;99.90;;;;;;5050774;28;19979;-87
2023/05/25 08:23:47;;;;;;;;;;;14.50;99.90;;;;;;5035798;28;19932;-90
2023/05/25 08:26:13;;;;;;;;;;;13.80;99.90;;;;;;5031058;28;19925;-93
2023/05/25 08:28:39;;;;;;;;;;;14.20;99.90;;;;;;5032114;28;20453;-91
2023/05/25 08:31:04;;;;;;;;;;;14.00;99.90;;;;;;5051892;28;19931;-87
2023/05/25 08:33:33;;;;;;;;;;;13.90;99.90;;;;;;5050184;28;19936;-89
2023/05/25 08:36:08;;;;;;;;;;;14.40;99.90;;;;;;5050357;28;20302;-89
2023/05/25 08:38:43;;;;;;;;;;;13.90;99.90;;;;;;5011166;28;20035;-89
2023/05/25 08:44:05;;;;;;;;;;;14.00;99.90;;;;;;5046630;28;19925;-87
2023/05/25 08:46:38;;;;;;;;;;;13.70;99.90;;;;;;5038798;28;19924;-90
2023/05/25 08:49:21;;;;;;;;;;;14.10;99.90;;;;;;5029448;28;19982;-89
2023/05/25 08:51:58;;;;;;;;;;;11.30;99.90;;;;;;5049339;28;19933;-89
2023/05/25 08:54:28;;;;;;;;;;;14.30;99.90;;;;;;5033923;28;19933;-86
2023/05/25 08:57:12;;;;;;;;;;;14.30;99.90;;;;;;5028539;28;20011;-88
2023/05/25 08:59:55;;;;;;;;;;;14.20;99.90;;;;;;5053097;28;19943;-88
2023/05/25 09:02:31;;;;;;;;;;;14.60;99.90;;;;;;5045121;28;20345;-87
2023/05/25 09:05:00;;;;;;;;;;;14.40;99.90;;;;;;5051582;28;19929;-90
2023/05/25 09:07:31;;;;;;;;;;;14.30;99.90;;;;;;5023872;28;20445;-88
2023/05/25 09:10:07;;;;;;;;;;;;;;;;;;;;;
2023/05/25 09:12:37;;;;;;;;;;;14.60;99.90;;;;;;5048700;28;20412;-88
2023/05/25 09:15:03;;;;;;;;;;;14.60;99.90;;;;;;5030185;28;19929;-87
2023/05/25 09:17:32;;;;;;;;;;;14.80;99.90;;;;;;5036406;28;20295;-88
2023/05/25 09:20:00;;;;;;;;;;;14.20;99.90;;;;;;5048082;28;19936;-87
2023/05/25 09:22:25;;;;;;;;;;;14.00;99.90;;;;;;5031763;28;20008;-87
2023/05/25 09:24:54;;;;;;;;;;;14.10;99.90;;;;;;5038683;28;20398;-90
2023/05/25 09:27:22;;;;;;;;;;;14.50;99.90;;;;;;5041177;28;19933;-87
2023/05/25 09:29:48;;;;;;;;;;;14.30;99.90;;;;;;5021061;28;19925;-86
2023/05/25 09:32:14;;;;;;;;;;;14.60;99.90;;;;;;5049873;28;20290;-86
2023/05/25 09:34:42;;;;;;;;;;;14.80;99.90;;;;;;5051758;28;20011;-88
2023/05/25 09:37:14;;;;;;;;;;;14.90;99.90;;;;;;5037357;28;19929;-87
2023/05/25 09:39:43;;;;;;;;;;;14.90;99.90;;;;;;5034737;28;19972;-86
2023/05/25 09:42:15;;;;;;;;;;;14.90;99.90;;;;;;5035176;28;19966;-88
2023/05/25 09:44:43;;;;;;;;;;;15.10;99.90;;;;;;5026085;28;19975;-88
2023/05/25 09:47:12;;;;;;;;;;;15.10;99.90;;;;;;5029569;28;19983;-88
2023/05/25 09:49:40;;;;;;;;;;;16.40;99.90;;;;;;5036408;28;19982;-88
2023/05/25 09:52:07;;;;;;;;;;;15.20;99.90;;;;;;5040732;28;20352;-86
2023/05/25 09:54:38;;;;;;;;;;;15.10;99.90;;;;;;5031096;28;20242;-89
2023/05/25 09:57:07;;;;;;;;;;;13.00;99.90;;;;;;5025076;28;19936;-87
2023/05/25 09:59:38;;;;;;;;;;;15.00;99.90;;;;;;5047212;28;19993;-90
2023/05/25 10:02:21;;;;;;;;;;;15.20;99.90;;;;;;5050116;28;20366;-90
2023/05/25 10:04:50;;;;;;;;;;;13.50;99.90;;;;;;5034518;28;19994;-88
2023/05/25 10:07:16;;;;;;;;;;;15.80;99.90;;;;;;5035084;28;20454;-87
2023/05/25 10:09:46;;;;;;;;;;;15.90;99.90;;;;;;5052009;28;19925;-92
2023/05/25 10:12:18;;;;;;;;;;;15.70;99.90;;;;;;5033907;28;19925;-90
2023/05/25 10:14:53;;;;;;;;;;;15.60;99.90;;;;;;5030105;28;19925;-92
2023/05/25 10:17:25;;;;;;;;;;;14.90;99.90;;;;;;5052733;28;19924;-89
2023/05/25 10:19:56;;;;;;;;;;;15.20;99.90;;;;;;5052011;28;19929;-88
2023/05/25 10:22:30;;;;;;;;;;;13.90;99.90;;;;;;5035915;28;19924;-88
2023/05/25 10:25:06;;;;;;;;;;;15.10;99.90;;;;;;5045713;28;19924;-87
2023/05/25 10:27:35;;;;;;;;;;;15.00;99.90;;;;;;5030396;28;19936;-87
2023/05/25 10:30:04;;;;;;;;;;;15.30;99.90;;;;;;5035917;28;20376;-88
2023/05/25 10:32:42;;;;;;;;;;;15.50;99.90;;;;;;5042050;28;19964;-89
2023/05/25 10:35:12;;;;;;;;;;;15.50;99.90;;;;;;5030373;28;20017;-88
2023/05/25 10:37:43;;;;;;;;;;;15.70;99.90;;;;;;5050344;28;19948;-90
2023/05/25 10:40:19;;;;;;;;;;;;;;;;;;;;;
2023/05/25 10:42:48;;;;;;;;;;;13.50;99.90;;;;;;5041841;28;20002;-89
2023/05/25 10:45:21;;;;;;;;;;;15.20;99.90;;;;;;5045543;28;19925;-89
2023/05/25 10:47:49;;;;;;;;;;;15.10;99.90;;;;;;5022603;28;20382;-91
2023/05/25 10:50:18;;;;;;;;;;;15.80;99.90;;;;;;5021510;28;19933;-87
2023/05/25 10:52:56;;;;;;;;;;;15.80;99.90;;;;;;5035293;28;20034;-89
2023/05/25 10:55:21;;;;;;;;;;;15.80;99.90;;;;;;5043709;28;20638;-88
2023/05/25 10:58:05;;;;;;;;;;;15.80;99.90;;;;;;5043552;28;19996;-88
2023/05/25 11:00:33;;;;;;;;;;;13.90;99.90;;;;;;5040151;28;19941;-89
2023/05/25 11:02:59;;;;;;;;;;;16.00;99.90;;;;;;5050343;28;19935;-87
2023/05/25 11:05:29;;;;;;;;;;;16.30;99.90;;;;;;5015129;28;20004;-88
2023/05/25 11:08:16;;;;;;;;;;;16.00;99.90;;;;;;5048951;28;19931;-87
2023/05/25 11:10:48;;;;;;;;;;;16.30;99.90;;;;;;5051438;28;19982;-87
2023/05/25 11:13:31;;;;;;;;;;;16.60;99.90;;;;;;5045202;28;20351;-88
2023/05/25 11:16:34;;;;;;;;;;;17.30;99.90;;;;;;5027489;28;19925;-88
2023/05/25 11:19:00;;;;;;;;;;;16.70;99.90;;;;;;5000038;28;20042;-87
2023/05/25 11:21:26;;;;;;;;;;;16.70;99.90;;;;;;5034224;28;19929;-89
2023/05/25 11:23:54;;;;;;;;;;;14.10;99.90;;;;;;5034158;28;20287;-88
2023/05/25 11:26:51;;;;;;;;;;;;;;;;;;;;;
2023/05/25 11:29:24;;;;;;;;;;;16.30;99.90;;;;;;5033130;28;19999;-88
2023/05/25 11:31:54;;;;;;;;;;;16.20;99.90;;;;;;5032883;28;19967;-91
2023/05/25 11:34:30;;;;;;;;;;;;;;;;;;;;;
2023/05/25 11:37:08;;;;;;;;;;;16.60;99.90;;;;;;5043716;28;19932;-91
2023/05/25 11:39:46;;;;;;;;;;;;;;;;;;;;;
2023/05/25 11:42:34;;;;;;;;;;;17.40;99.70;;;;;;5046424;28;19932;-90
2023/05/25 11:45:02;;;;;;;;;;;16.90;98.40;;;;;;5040534;28;19928;-87
2023/05/25 11:47:38;;;;;;;;;;;16.70;98.40;;;;;;5050622;28;19925;-89
2023/05/25 11:50:14;;;;;;;;;;;16.80;98.40;;;;;;5003310;28;19933;-90
2023/05/25 11:52:42;;;;;;;;;;;19.00;98.60;;;;;;5020026;28;19928;-90
2023/05/25 11:55:13;;;;;;;;;;;18.30;99.90;;;;;;5031764;28;19925;-89
2023/05/25 11:57:57;;;;;;;;;;;16.50;99.90;;;;;;5032522;28;19995;-90
2023/05/25 12:00:27;;;;;;;;;;;16.60;99.90;;;;;;5034616;28;20329;-87
2023/05/25 12:03:15;;;;;;;;;;;14.10;99.30;;;;;;5042988;28;19967;-89
2023/05/25 12:05:40;;;;;;;;;;;16.50;99.90;;;;;;5032818;28;19943;-86
2023/05/25 12:08:06;;;;;;;;;;;16.10;99.90;;;;;;5029169;28;19925;-89
2023/05/25 12:10:32;;;;;;;;;;;16.60;99.90;;;;;;5016159;28;19925;-88
2023/05/25 12:13:00;;;;;;;;;;;16.90;99.90;;;;;;5031237;28;19960;-87
2023/05/25 12:15:28;;;;;;;;;;;16.90;98.80;;;;;;5042386;28;19925;-88
2023/05/25 12:17:54;;;;;;;;;;;17.00;99.90;;;;;;5047369;28;19925;-89
2023/05/25 12:20:20;;;;;;;;;;;17.30;99.90;;;;;;5048680;28;20398;-89
2023/05/25 12:22:51;;;;;;;;;;;17.80;98.70;;;;;;5044424;28;19932;-92
2023/05/25 12:25:22;;;;;;;;;;;17.00;97.70;;;;;;5037986;28;19968;-87
2023/05/25 12:27:48;;;;;;;;;;;17.80;95.40;;;;;;5037295;28;19925;-92
2023/05/25 12:30:13;;;;;;;;;;;16.90;99.00;;;;;;5043636;28;19932;-90
2023/05/25 12:33:01;;;;;;;;;;;17.50;99.80;;;;;;5046975;28;19980;-91
2023/05/25 12:35:27;;;;;;;;;;;17.10;96.90;;;;;;5034510;28;19925;-88
2023/05/25 12:38:13;;;;;;;;;;;17.20;96.90;;;;;;5041725;28;20015;-87
2023/05/25 12:40:39;;;;;;;;;;;17.00;96.50;;;;;;5026964;28;20251;-84
2023/05/25 12:43:10;;;;;;;;;;;16.80;97.00;;;;;;5050893;28;19974;-89
2023/05/25 12:45:42;;;;;;;;;;;14.10;98.00;;;;;;5038411;28;20016;-86
2023/05/25 12:48:08;;;;;;;;;;;16.60;98.30;;;;;;5054104;28;20664;-85
2023/05/25 12:50:34;;;;;;;;;;;17.10;96.30;;;;;;5052802;28;19925;-87
2023/05/25 12:53:03;;;;;;;;;;;16.80;97.60;;;;;;5038581;28;19971;-87
2023/05/25 12:55:31;;;;;;;;;;;17.10;95.80;;;;;;5055077;28;19925;-88
2023/05/25 12:58:09;;;;;;;;;;;;;;;;;;;;;
2023/05/25 13:00:44;;;;;;;;;;;17.30;97.00;;;;;;5054973;28;19925;-87
2023/05/25 13:03:19;;;;;;;;;;;;;;;;;;;;;
2023/05/25 13:05:45;;;;;;;;;;;17.60;97.50;;;;;;5032496;28;19952;-85
2023/05/25 13:08:14;;;;;;;;;;;17.50;97.50;;;;;;5042579;28;19925;-87
2023/05/25 13:10:40;;;;;;;;;;;14.60;96.10;;;;;;5020651;28;19976;-87
2023/05/25 13:13:08;;;;;;;;;;;17.00;98.10;;;;;;5035579;28;19963;-88
2023/05/25 13:15:34;;;;;;;;;;;17.20;98.80;;;;;;5050305;28;19925;-89
2023/05/25 13:18:00;;;;;;;;;;;17.10;98.90;;;;;;5027069;28;19987;-86
2023/05/25 13:20:29;;;;;;;;;;;17.00;97.00;;;;;;5022941;28;19925;-87
2023/05/25 13:23:07;;;;;;;;;;;;;;;;;;;;;
2023/05/25 13:25:43;;;;;;;;;;;17.20;98.70;;;;;;5053281;28;19925;-86
2023/05/25 13:28:09;;;;;;;;;;;17.10;98.00;;;;;;5036092;28;19928;-84
2023/05/25 13:30:35;;;;;;;;;;;16.90;98.00;;;;;;5050730;28;20005;-84
2023/05/25 13:33:03;;;;;;;;;;;17.20;95.90;;;;;;5047612;28;19925;-87
2023/05/25 13:35:44;;;;;;;;;;;16.70;96.80;;;;;;5044348;28;19963;-86
2023/05/25 13:38:14;;;;;;;;;;;16.50;98.90;;;;;;5040150;28;19925;-90
2023/05/25 13:40:40;;;;;;;;;;;16.70;98.30;;;;;;5030366;28;19978;-90
2023/05/25 13:43:06;;;;;;;;;;;16.70;98.80;;;;;;5044436;28;19925;-89
2023/05/25 13:45:32;;;;;;;;;;;16.90;99.70;;;;;;5024845;28;19925;-85
2023/05/25 13:47:58;;;;;;;;;;;16.80;95.90;;;;;;5043313;28;19936;-88
2023/05/25 13:50:26;;;;;;;;;;;16.50;99.60;;;;;;5057380;28;19925;-89
2023/05/25 13:52:54;;;;;;;;;;;16.70;99.90;;;;;;5053250;28;19924;-87
2023/05/25 13:55:19;;;;;;;;;;;16.90;97.40;;;;;;5032878;28;20015;-85
2023/05/25 13:57:53;;;;;;;;;;;16.60;96.70;;;;;;5053485;28;20449;-89
2023/05/25 14:00:18;;;;;;;;;;;16.50;96.80;;;;;;5048804;28;19924;-87
2023/05/25 14:02:47;;;;;;;;;;;16.70;98.40;;;;;;5030858;28;19925;-88
2023/05/25 14:05:15;;;;;;;;;;;16.90;97.20;;;;;;5036262;28;19924;-87
2023/05/25 14:07:40;;;;;;;;;;;16.80;97.50;;;;;;5029539;28;19971;-84
2023/05/25 14:10:06;;;;;;;;;;;16.70;97.00;;;;;;5053055;28;19955;-86
2023/05/25 14:12:39;;;;;;;;;;;16.80;98.60;;;;;;5048641;28;19925;-87
2023/05/25 14:15:06;;;;;;;;;;;16.80;96.40;;;;;;5053768;28;19925;-86
2023/05/25 14:17:31;;;;;;;;;;;16.70;95.00;;;;;;5037249;28;19925;-89
2023/05/25 14:19:57;;;;;;;;;;;16.50;97.60;;;;;;5033658;28;19978;-92
2023/05/25 14:22:24;;;;;;;;;;;16.60;97.10;;;;;;5030630;28;19925;-88
2023/05/25 14:24:53;;;;;;;;;;;16.80;98.80;;;;;;5027379;28;19928;-89
2023/05/25 14:27:38;;;;;;;;;;;16.50;97.20;;;;;;5039587;28;19929;-89
2023/05/25 14:30:10;;;;;;;;;;;16.40;97.50;;;;;;5027108;28;19931;-90
2023/05/25 14:32:38;;;;;;;;;;;16.60;96.90;;;;;;5019632;28;19978;-87
2023/05/25 14:35:06;;;;;;;;;;;15.20;99.50;;;;;;5031423;28;19964;-88
2023/05/25 14:37:32;;;;;;;;;;;16.50;96.70;;;;;;5038379;28;20016;-86
2023/05/25 14:39:59;;;;;;;;;;;16.50;98.10;;;;;;5047099;28;20389;-90
2023/05/25 14:42:30;;;;;;;;;;;17.10;98.90;;;;;;5030301;28;19933;-86
2023/05/25 14:44:55;;;;;;;;;;;16.80;96.80;;;;;;5044222;28;19974;-90